Time;durP1;ratioP1;P1;durP2;ratioP2;P2;SDS_P1;SDS_P2;PMS_P1;PMS_P2;Temp;Humidity;BMP_temperature;BMP_pressure;BME280_temperature;BME280_humidity;BME280_pressure;Samples;Min_cycle;Max_cycle;Signal;HPM_P1;HPM_P2
2022/08/16 00:00:00;;;;;;;7.10;6.47;;;;;;;19.09;100.00;98530.84;5023552;28;20727;-81
2022/08/16 00:02:32;;;;;;;6.33;5.83;;;;;;;19.11;100.00;98531.38;5021607;28;20241;-81
2022/08/16 00:04:59;;;;;;;7.00;6.30;;;;;;;19.17;100.00;98530.19;5019508;28;20256;-82
2022/08/16 00:07:28;;;;;;;6.50;5.97;;;;;;;19.17;100.00;98538.31;5013819;28;20370;-82
2022/08/16 00:09:56;;;;;;;6.83;6.23;;;;;;;19.15;100.00;98530.47;5022469;28;20237;-81
2022/08/16 00:12:23;;;;;;;6.40;5.80;;;;;;;19.18;100.00;98532.56;5020184;28;20315;-82
2022/08/16 00:14:52;;;;;;;6.93;6.33;;;;;;;19.19;100.00;98536.09;5019790;28;20234;-82
2022/08/16 00:17:24;;;;;;;6.60;6.10;;;;;;;19.15;100.00;98529.66;5024413;28;20232;-81
2022/08/16 00:19:52;;;;;;;7.27;6.70;;;;;;;19.13;100.00;98529.94;5026604;28;20242;-81
2022/08/16 00:22:21;;;;;;;7.23;6.63;;;;;;;19.13;100.00;98531.88;5018506;28;20261;-81
2022/08/16 00:24:52;;;;;;;6.90;6.40;;;;;;;19.11;100.00;98532.19;5024709;28;20243;-81
2022/08/16 00:27:20;;;;;;;7.13;6.50;;;;;;;19.12;100.00;98527.56;5020727;28;20288;-81
2022/08/16 00:29:47;;;;;;;6.97;6.37;;;;;;;19.12;100.00;98522.94;5023938;28;20296;-81
2022/08/16 00:32:34;;;;;;;6.70;6.10;;;;;;;19.15;100.00;98522.31;5045936;28;20218;-80
2022/08/16 00:35:00;;;;;;;6.87;6.27;;;;;;;19.19;100.00;98526.03;5024348;28;20228;-80
2022/08/16 00:37:27;;;;;;;6.27;5.77;;;;;;;19.27;100.00;98525.31;5028571;28;20234;-82
2022/08/16 00:40:23;;;;;;;6.57;6.07;;;;;;;19.28;100.00;98534.28;5022198;28;20286;-81
2022/08/16 00:43:10;;;;;;;6.70;5.97;;;;;;;19.32;100.00;98538.81;5032284;28;20229;-82
2022/08/16 00:45:55;;;;;;;6.43;5.93;;;;;;;19.16;100.00;98545.66;5026890;28;20286;-81
2022/08/16 00:48:28;;;;;;;6.37;5.87;;;;;;;19.14;100.00;98536.19;5037007;28;20236;-80
2022/08/16 00:50:59;;;;;;;6.80;6.30;;;;;;;19.06;100.00;98536.91;5030087;28;20728;-81
2022/08/16 00:53:27;;;;;;;6.80;6.20;;;;;;;19.07;100.00;98535.81;5031403;28;20236;-81
2022/08/16 00:56:00;;;;;;;6.30;5.80;;;;;;;19.02;100.00;98531.28;5028952;28;20234;-82
2022/08/16 00:58:34;;;;;;;6.13;5.63;;;;;;;19.00;100.00;98536.19;5045653;28;20698;-80
2022/08/16 01:01:02;;;;;;;7.03;6.13;;;;;;;19.09;100.00;98539.81;5061407;28;20232;-82
2022/08/16 01:03:35;;;;;;;6.57;5.90;;;;;;;18.98;100.00;98540.31;5033440;28;20239;-82
2022/08/16 01:06:03;;;;;;;6.90;6.17;;;;;;;19.00;100.00;98547.03;5057889;28;20333;-80
2022/08/16 01:08:51;;;;;;;6.67;6.17;;;;;;;18.91;100.00;98554.28;5044464;28;20241;-81
2022/08/16 01:11:21;;;;;;;6.80;6.27;;;;;;;18.88;100.00;98554.88;5041899;28;20239;-81
2022/08/16 01:13:50;;;;;;;6.40;5.90;;;;;;;18.86;100.00;98557.88;5041086;28;20227;-81
2022/08/16 01:16:21;;;;;;;6.93;6.23;;;;;;;18.77;100.00;98564.28;5047996;28;20258;-82
2022/08/16 01:19:09;;;;;;;6.40;5.87;;;;;;;18.74;100.00;98571.13;5043661;28;20247;-81
2022/08/16 01:21:50;;;;;;;7.27;6.60;;;;;;;18.70;100.00;98572.03;5060805;28;20247;-80
2022/08/16 01:24:27;;;;;;;6.53;5.90;;;;;;;18.53;100.00;98569.03;5056086;28;20652;-81
2022/08/16 01:27:18;;;;;;;6.80;6.30;;;;;;;18.47;100.00;98585.41;5033656;28;20230;-81
2022/08/16 01:29:47;;;;;;;7.17;6.63;;;;;;;18.42;100.00;98595.53;5038357;28;20247;-82
2022/08/16 01:32:27;;;;;;;6.50;5.90;;;;;;;18.59;100.00;98600.41;5045578;28;20601;-81
2022/08/16 01:35:04;;;;;;;6.40;5.80;;;;;;;18.69;100.00;98603.78;5044209;28;20235;-83
2022/08/16 01:37:40;;;;;;;5.80;5.30;;;;;;;18.84;100.00;98614.38;5044193;28;20242;-80
2022/08/16 01:40:09;;;;;;;6.00;5.60;;;;;;;18.95;100.00;98614.19;5045507;28;20242;-80
2022/08/16 01:42:37;;;;;;;5.13;4.60;;;;;;;19.19;100.00;98607.50;5031997;28;20579;-81
2022/08/16 01:45:14;;;;;;;4.83;4.43;;;;;;;19.40;100.00;98609.84;5048235;28;20655;-81
2022/08/16 01:47:47;;;;;;;4.27;3.87;;;;;;;19.47;100.00;98607.53;5048908;28;20712;-81
2022/08/16 01:50:19;;;;;;;4.67;4.30;;;;;;;19.51;100.00;98608.53;5066525;28;20258;-81
2022/08/16 01:53:06;;;;;;;4.37;4.07;;;;;;;19.65;100.00;98602.00;5036708;28;20601;-81
2022/08/16 01:55:54;;;;;;;4.37;3.97;;;;;;;19.97;100.00;98611.91;5049396;28;20716;-81
2022/08/16 01:58:22;;;;;;;4.17;3.77;;;;;;;20.12;100.00;98610.75;5027862;28;20235;-81
2022/08/16 02:00:49;;;;;;;3.53;3.33;;;;;;;20.30;100.00;98601.69;5011835;28;20274;-82
2022/08/16 02:03:16;;;;;;;3.63;3.33;;;;;;;20.47;100.00;98603.75;5040864;28;20229;-80
2022/08/16 02:05:51;;;;;;;3.70;3.40;;;;;;;20.50;100.00;98606.66;5038995;28;20243;-82
2022/08/16 02:08:18;;;;;;;3.33;3.03;;;;;;;20.67;100.00;98601.31;5051109;28;20730;-80
2022/08/16 02:11:03;;;;;;;3.50;3.20;;;;;;;20.59;100.00;98602.06;5034940;28;20235;-81
2022/08/16 02:13:30;;;;;;;3.10;2.90;;;;;;;21.03;100.00;98603.94;5021698;28;20289;-83
2022/08/16 02:15:58;;;;;;;3.27;2.97;;;;;;;20.92;100.00;98599.88;5051901;28;20782;-83
2022/08/16 02:18:25;;;;;;;2.87;2.50;;;;;;;20.94;100.00;98605.81;5013662;28;20284;-81
2022/08/16 02:20:52;;;;;;;3.47;2.70;;;;;;;20.86;100.00;98605.75;5036329;28;20276;-81
2022/08/16 02:23:20;;;;;;;4.67;2.80;;;;;;;20.94;100.00;98594.13;5019606;28;20227;-81
2022/08/16 02:25:48;;;;;;;3.97;2.97;;;;;;;21.08;100.00;98592.13;5033437;28;20233;-82
2022/08/16 02:28:23;;;;;;;2.90;2.50;;;;;;;21.01;100.00;98591.75;5043615;28;20241;-83
2022/08/16 02:30:51;;;;;;;2.90;2.70;;;;;;;21.10;100.00;98595.31;5037203;28;20232;-81
2022/08/16 02:33:20;;;;;;;2.90;2.57;;;;;;;21.16;100.00;98593.31;5038444;28;20318;-81
2022/08/16 02:35:50;;;;;;;3.33;2.60;;;;;;;21.02;100.00;98585.19;5037383;28;20240;-81
2022/08/16 02:38:28;;;;;;;2.83;2.60;;;;;;;21.08;100.00;98589.41;5044744;28;20260;-84
2022/08/16 02:40:59;;;;;;;3.47;2.70;;;;;;;20.98;100.00;98590.47;5028080;28;20648;-80
2022/08/16 02:43:30;;;;;;;3.53;2.40;;;;;;;21.06;100.00;98586.97;5023208;28;20735;-81
2022/08/16 02:46:02;;;;;;;2.70;2.50;;;;;;;21.08;100.00;98590.22;5017132;28;20272;-80
2022/08/16 02:48:37;;;;;;;2.77;2.30;;;;;;;21.04;100.00;98596.59;5023748;28;20233;-83
2022/08/16 02:51:07;;;;;;;2.60;2.40;;;;;;;21.08;100.00;98592.13;5028643;28;20299;-80
2022/08/16 02:53:43;;;;;;;2.57;2.37;;;;;;;21.10;100.00;98596.13;5012867;28;20244;-81
2022/08/16 02:56:13;;;;;;;2.77;2.43;;;;;;;21.01;100.00;98599.91;5057399;28;20232;-82
2022/08/16 02:58:44;;;;;;;2.50;2.30;;;;;;;21.05;100.00;98607.16;5028818;28;20238;-83
2022/08/16 03:01:13;;;;;;;2.90;2.40;;;;;;;21.04;100.00;98607.47;5028850;28;20236;-83
2022/08/16 03:04:03;;;;;;;3.00;2.40;;;;;;;20.92;100.00;98615.41;5028949;28;20930;-80
2022/08/16 03:06:51;;;;;;;2.87;2.50;;;;;;;20.88;100.00;98612.50;5028881;28;20748;-82
2022/08/16 03:09:39;;;;;;;2.63;2.30;;;;;;;20.68;100.00;98615.72;5030268;28;20259;-82
2022/08/16 03:12:10;;;;;;;2.77;2.57;;;;;;;20.78;100.00;98620.13;5026542;28;20661;-80
2022/08/16 03:14:42;;;;;;;2.37;2.17;;;;;;;20.80;100.00;98621.44;5012192;28;20706;-81
2022/08/16 03:17:09;;;;;;;3.67;2.40;;;;;;;20.65;100.00;98617.16;5045198;28;20314;-83
2022/08/16 03:19:37;;;;;;;2.93;2.50;;;;;;;20.69;100.00;98625.50;5044658;28;20229;-81
2022/08/16 03:22:20;;;;;;;2.40;2.20;;;;;;;20.53;100.00;98622.34;5026528;28;20243;-83
2022/08/16 03:24:59;;;;;;;3.27;2.60;;;;;;;20.53;100.00;98632.44;5002001;28;20234;-82
2022/08/16 03:27:31;;;;;;;3.20;2.50;;;;;;;20.46;100.00;98629.34;5039355;28;20246;-82
2022/08/16 03:30:04;;;;;;;3.13;2.47;;;;;;;20.53;100.00;98630.50;5035440;28;20235;-81
2022/08/16 03:32:46;;;;;;;2.57;2.37;;;;;;;20.51;100.00;98640.09;5039825;28;20317;-83
2022/08/16 03:35:20;;;;;;;2.50;2.30;;;;;;;20.51;100.00;98640.91;5027345;28;20581;-83
2022/08/16 03:37:47;;;;;;;2.40;2.20;;;;;;;20.64;100.00;98645.50;5036463;28;20236;-84
2022/08/16 03:40:33;;;;;;;3.53;2.60;;;;;;;20.55;100.00;98650.06;5021087;28;20271;-82
2022/08/16 03:43:08;;;;;;;2.70;2.50;;;;;;;20.36;100.00;98648.59;5021169;28;20332;-81
2022/08/16 03:45:50;;;;;;;2.70;2.50;;;;;;;20.32;100.00;98658.50;5015118;28;20230;-81
2022/08/16 03:48:22;;;;;;;2.97;2.40;;;;;;;20.27;100.00;98664.81;5023934;28;20246;-82
2022/08/16 03:51:15;;;;;;;2.40;2.20;;;;;;;20.22;100.00;98659.50;5023079;28;20230;-81
2022/08/16 03:53:58;;;;;;;2.60;2.40;;;;;;;20.19;100.00;98658.22;5036958;28;20242;-83
2022/08/16 03:56:30;;;;;;;3.07;2.33;;;;;;;20.17;100.00;98659.59;5027501;28;20687;-82
2022/08/16 03:58:58;;;;;;;2.33;2.13;;;;;;;20.22;100.00;98659.50;5075124;28;20224;-82
2022/08/16 04:01:31;;;;;;;3.03;2.47;;;;;;;20.21;100.00;98657.88;5055267;28;20265;-81
2022/08/16 04:04:00;;;;;;;2.90;2.57;;;;;;;20.23;100.00;98642.88;5068787;28;20225;-82
2022/08/16 04:06:28;;;;;;;2.67;2.20;;;;;;;20.26;100.00;98648.81;5035500;28;20252;-82
2022/08/16 04:08:55;;;;;;;2.40;2.30;;;;;;;20.33;100.00;98650.03;5068762;28;20231;-82
2022/08/16 04:11:22;;;;;;;2.60;2.40;;;;;;;20.38;100.00;98647.22;5072450;28;20236;-82
2022/08/16 04:13:50;;;;;;;2.80;2.60;;;;;;;20.45;100.00;98652.22;5070894;28;20239;-81
2022/08/16 04:16:38;;;;;;;4.17;2.30;;;;;;;20.53;100.00;98644.09;5072154;28;20254;-81
2022/08/16 04:19:24;;;;;;;2.70;2.20;;;;;;;20.56;100.00;98648.16;5071962;28;20245;-82
2022/08/16 04:21:58;;;;;;;2.57;2.37;;;;;;;20.57;100.00;98649.75;5041188;28;20297;-83
2022/08/16 04:24:29;;;;;;;2.40;2.20;;;;;;;20.63;100.00;98651.22;5040762;28;20239;-82
2022/08/16 04:26:57;;;;;;;2.57;2.37;;;;;;;20.70;100.00;98648.91;5050036;28;20312;-82
2022/08/16 04:29:26;;;;;;;4.53;2.00;;;;;;;20.71;100.00;98652.44;5048603;28;20220;-81
2022/08/16 04:32:10;;;;;;;2.60;2.20;;;;;;;20.73;99.75;98644.75;5040299;28;20227;-81
2022/08/16 04:34:41;;;;;;;3.00;2.10;;;;;;;20.84;97.01;98652.34;5048680;28;20250;-81
2022/08/16 04:37:11;;;;;;;2.20;2.00;;;;;;;20.92;98.52;98657.06;5053700;28;20222;-81
2022/08/16 04:39:42;;;;;;;2.30;2.10;;;;;;;21.05;96.90;98658.09;5025147;28;20841;-82
2022/08/16 04:42:16;;;;;;;2.40;2.20;;;;;;;21.20;92.04;98660.44;5042945;28;20309;-81
2022/08/16 04:44:45;;;;;;;2.10;1.90;;;;;;;21.25;88.17;98657.59;5015889;28;20256;-80
2022/08/16 04:47:27;;;;;;;2.73;2.33;;;;;;;21.32;88.95;98662.63;5054055;28;20256;-81
2022/08/16 04:50:11;;;;;;;2.40;2.20;;;;;;;21.49;85.96;98677.13;5053009;28;20243;-83
2022/08/16 04:52:56;;;;;;;2.83;2.20;;;;;;;21.67;82.61;98671.72;5042104;28;20269;-81
2022/08/16 04:55:28;;;;;;;2.10;1.90;;;;;;;21.70;81.97;98674.63;5042717;28;20243;-80
2022/08/16 04:58:05;;;;;;;3.20;1.93;;;;;;;21.81;79.94;98677.88;5025742;28;20232;-80
2022/08/16 05:00:53;;;;;;;2.70;2.10;;;;;;;21.77;80.50;98682.34;5020946;28;20337;-83
2022/08/16 05:03:21;;;;;;;3.00;2.03;;;;;;;21.79;79.24;98680.91;5037050;28;20236;-81
2022/08/16 05:05:51;;;;;;;2.90;1.93;;;;;;;21.80;78.34;98684.44;5030732;28;20248;-80
2022/08/16 05:08:30;;;;;;;2.73;2.13;;;;;;;21.80;76.63;98682.53;5026185;28;20285;-81
2022/08/16 05:11:27;;;;;;;2.13;1.97;;;;;;;21.79;77.58;98682.84;5038800;28;20224;-80
2022/08/16 05:14:00;;;;;;;2.45;1.80;;;;;;;21.89;74.89;98677.91;5052488;28;20348;-81
2022/08/16 05:16:36;;;;;;;1.83;1.73;;;;;;;21.95;74.14;98673.13;5053183;28;20769;-80
2022/08/16 05:19:07;;;;;;;2.60;1.70;;;;;;;22.07;73.51;98675.25;5071315;28;20695;-80
2022/08/16 05:22:01;;;;;;;1.85;1.70;;;;;;;22.17;72.88;98658.56;5037495;28;20264;-79
2022/08/16 05:24:28;;;;;;;1.98;1.88;;;;;;;22.32;71.82;98669.03;5053051;28;20230;-80
2022/08/16 05:26:55;;;;;;;2.28;1.77;;;;;;;22.48;70.24;98683.81;5019933;28;20774;-82
2022/08/16 05:29:23;;;;;;;2.70;2.00;;;;;;;22.62;70.72;98689.13;5038613;28;20641;-81
2022/08/16 05:32:14;;;;;;;2.08;1.80;;;;;;;22.86;67.96;98686.75;5031758;28;20225;-81
2022/08/16 05:35:06;;;;;;;2.45;2.03;;;;;;;22.99;67.18;98684.97;5049975;28;20281;-80
2022/08/16 05:37:39;;;;;;;2.35;2.00;;;;;;;23.11;66.58;98688.63;5017358;28;21431;-82
2022/08/16 05:40:09;;;;;;;2.97;1.77;;;;;;;23.31;65.58;98700.00;5052971;28;20234;-81
2022/08/16 05:42:40;;;;;;;2.33;2.13;;;;;;;23.45;65.54;98698.72;5021822;28;20640;-80
2022/08/16 05:45:16;;;;;;;2.92;1.85;;;;;;;23.66;63.99;98694.13;5053859;28;20226;-82
2022/08/16 05:47:49;;;;;;;2.95;2.03;;;;;;;23.80;62.54;98702.09;5044606;28;20585;-82
2022/08/16 05:50:35;;;;;;;1.90;1.70;;;;;;;24.01;60.93;98707.66;5043963;28;20229;-82
2022/08/16 05:53:03;;;;;;;2.00;1.80;;;;;;;24.04;58.87;98717.94;5076863;28;20235;-83
2022/08/16 05:55:32;;;;;;;2.00;1.80;;;;;;;24.27;58.18;98700.13;5060833;28;20303;-82
2022/08/16 05:58:06;;;;;;;2.15;1.98;;;;;;;24.38;57.27;98703.28;5053930;28;20233;-79
2022/08/16 06:00:35;;;;;;;2.75;2.20;;;;;;;24.61;57.38;98701.00;5054390;28;20244;-79
2022/08/16 06:03:02;;;;;;;2.25;1.77;;;;;;;24.74;56.92;98698.00;5051922;28;20244;-81
2022/08/16 06:05:55;;;;;;;2.13;1.92;;;;;;;24.95;55.38;98703.50;5056738;28;20256;-81
2022/08/16 06:08:26;;;;;;;2.95;1.80;;;;;;;25.05;54.21;98707.78;5040216;28;20243;-81
2022/08/16 06:11:08;;;;;;;2.60;1.90;;;;;;;25.11;54.37;98714.63;5046139;28;20305;-81
2022/08/16 06:13:38;;;;;;;1.83;1.70;;;;;;;25.24;52.97;98710.81;5013812;28;20576;-80
2022/08/16 06:16:10;;;;;;;1.60;1.50;;;;;;;25.26;52.46;98705.78;5026114;28;20232;-81
2022/08/16 06:18:49;;;;;;;1.90;1.80;;;;;;;25.28;53.25;98709.00;5027252;28;20228;-79
2022/08/16 06:21:17;;;;;;;2.17;1.92;;;;;;;25.40;52.49;98706.28;5031779;28;20231;-79
2022/08/16 06:23:50;;;;;;;2.22;2.00;;;;;;;25.44;51.73;98697.03;5040071;28;20321;-81
2022/08/16 06:26:21;;;;;;;1.65;1.52;;;;;;;25.56;51.25;98706.47;5037103;28;20241;-79
2022/08/16 06:28:49;;;;;;;2.20;1.80;;;;;;;25.63;50.68;98703.94;5044614;28;20222;-78
2022/08/16 06:31:26;;;;;;;2.17;1.80;;;;;;;25.66;52.08;98703.28;5028034;28;20236;-78
2022/08/16 06:33:56;;;;;;;1.85;1.75;;;;;;;25.70;50.53;98705.00;5027599;28;20249;-79
2022/08/16 06:36:24;;;;;;;4.88;2.20;;;;;;;25.83;50.12;98714.84;5027074;28;20234;-79
2022/08/16 06:38:58;;;;;;;2.45;1.80;;;;;;;25.79;49.97;98713.13;5027798;28;20232;-79
2022/08/16 06:41:58;;;;;;;3.03;1.90;;;;;;;25.97;49.12;98717.25;5028580;28;20228;-81
2022/08/16 06:44:53;;;;;;;2.05;1.80;;;;;;;26.00;50.17;98718.50;5026973;28;20229;-78
2022/08/16 06:47:34;;;;;;;2.47;1.75;;;;;;;26.08;49.63;98717.59;5022864;28;20370;-79
2022/08/16 06:50:23;;;;;;;3.22;1.98;;;;;;;26.17;48.39;98727.31;5025563;28;20226;-81
2022/08/16 06:52:58;;;;;;;7.70;2.28;;;;;;;26.08;48.18;98717.59;5038723;28;20247;-81
2022/08/16 06:55:37;;;;;;;3.03;2.05;;;;;;;26.33;48.55;98719.19;5045559;28;20232;-81
2022/08/16 06:58:08;;;;;;;2.20;2.00;;;;;;;26.43;48.32;98728.91;5040446;28;20240;-81
2022/08/16 07:00:55;;;;;;;2.35;1.90;;;;;;;26.55;47.77;98726.16;5037767;28;20230;-82
2022/08/16 07:03:27;;;;;;;3.55;2.13;;;;;;;26.57;47.65;98715.63;5038386;28;20313;-81
2022/08/16 07:06:15;;;;;;;3.05;2.10;;;;;;;26.68;47.38;98714.00;5033877;28;20250;-80
2022/08/16 07:08:43;;;;;;;2.80;1.95;;;;;;;26.86;47.48;98718.09;5053030;28;20234;-82
2022/08/16 07:11:10;;;;;;;2.65;2.00;;;;;;;27.02;47.40;98713.44;5015229;28;20276;-80
2022/08/16 07:13:37;;;;;;;4.80;1.80;;;;;;;26.97;45.89;98716.44;5033235;28;20237;-81
2022/08/16 07:16:26;;;;;;;1.77;1.67;;;;;;;27.10;46.71;98711.69;5047366;28;20313;-82
2022/08/16 07:18:56;;;;;;;2.63;2.15;;;;;;;27.16;46.02;98711.09;5041726;28;20226;-82
2022/08/16 07:21:31;;;;;;;2.08;1.88;;;;;;;27.27;44.94;98705.88;5028158;28;20234;-81
2022/08/16 07:24:19;;;;;;;2.95;1.85;;;;;;;27.09;44.72;98708.16;5028393;28;20222;-81
2022/08/16 07:27:00;;;;;;;2.55;1.90;;;;;;;27.11;45.73;98713.28;5036622;28;20612;-81
2022/08/16 07:29:28;;;;;;;3.53;2.05;;;;;;;27.31;45.14;98716.97;5048540;28;20245;-81
2022/08/16 07:31:59;;;;;;;2.10;2.00;;;;;;;27.40;44.46;98720.34;5050792;28;20237;-81
2022/08/16 07:34:28;;;;;;;4.35;1.90;;;;;;;27.62;44.50;98727.28;5054528;28;20233;-81
2022/08/16 07:37:06;;;;;;;3.63;1.90;;;;;;;27.63;44.30;98728.84;5068157;28;20236;-80
2022/08/16 07:39:53;;;;;;;2.67;2.10;;;;;;;27.67;43.21;98727.78;5051937;28;20295;-81
2022/08/16 07:42:21;;;;;;;2.28;2.03;;;;;;;27.77;43.32;98727.25;5042759;28;20704;-81
2022/08/16 07:45:01;;;;;;;2.00;1.80;;;;;;;27.76;42.50;98733.94;5020492;28;20226;-81
2022/08/16 07:47:28;;;;;;;5.30;2.17;;;;;;;27.71;42.67;98731.44;5022374;28;20236;-82
2022/08/16 07:49:58;;;;;;;2.50;1.98;;;;;;;27.68;42.92;98737.66;5064110;28;20234;-81
2022/08/16 07:52:25;;;;;;;2.25;2.05;;;;;;;27.75;42.76;98734.28;5012592;28;20226;-82
2022/08/16 07:54:57;;;;;;;2.92;2.00;;;;;;;27.69;42.97;98722.75;5027368;28;20241;-82
2022/08/16 07:57:24;;;;;;;2.75;2.05;;;;;;;27.73;42.41;98728.31;5028418;28;20235;-79
2022/08/16 07:59:53;;;;;;;2.30;2.10;;;;;;;27.65;42.98;98726.56;5029295;28;20226;-80
2022/08/16 08:02:24;;;;;;;3.70;2.10;;;;;;;27.80;42.37;98723.03;5057012;28;20229;-81
2022/08/16 08:04:55;;;;;;;3.08;2.05;;;;;;;27.58;43.06;98727.16;5026941;28;20238;-80
2022/08/16 08:07:24;;;;;;;2.20;2.00;;;;;;;27.76;42.56;98724.88;5024492;28;20679;-79
2022/08/16 08:09:56;;;;;;;4.72;1.88;;;;;;;27.97;42.56;98723.44;5035046;28;20241;-80
2022/08/16 08:12:23;;;;;;;2.30;2.03;;;;;;;28.04;42.24;98731.09;5023686;28;20290;-81
2022/08/16 08:15:04;;;;;;;2.03;1.90;;;;;;;28.13;42.04;98725.44;5028607;28;20213;-79
2022/08/16 08:17:38;;;;;;;4.28;2.00;;;;;;;28.17;42.00;98721.59;5021262;28;20222;-81
2022/08/16 08:20:16;;;;;;;3.35;2.13;;;;;;;28.24;42.79;98713.50;5040639;28;20297;-80
2022/08/16 08:22:57;;;;;;;2.30;2.10;;;;;;;28.34;41.27;98717.66;5037094;28;20236;-80
2022/08/16 08:25:32;;;;;;;4.95;2.10;;;;;;;28.42;41.59;98719.41;5043211;28;20654;-79
2022/08/16 08:28:19;;;;;;;1.90;1.80;;;;;;;28.51;41.98;98717.25;5058020;28;20885;-78
2022/08/16 08:30:48;;;;;;;3.92;1.90;;;;;;;28.67;40.54;98712.50;5040907;28;20249;-79
2022/08/16 08:33:32;;;;;;;3.15;2.00;;;;;;;28.34;41.17;98717.66;5029794;28;20242;-78
2022/08/16 08:36:06;;;;;;;2.63;2.17;;;;;;;28.60;40.89;98711.56;5025044;28;20226;-79
2022/08/16 08:38:35;;;;;;;4.38;2.15;;;;;;;28.45;40.54;98715.94;5027242;28;20244;-79
2022/08/16 08:41:14;;;;;;;2.45;1.80;;;;;;;28.59;41.07;98719.03;5049594;28;20618;-80
2022/08/16 08:43:47;;;;;;;4.72;1.73;;;;;;;28.64;41.04;98712.44;5042327;28;20232;-79
2022/08/16 08:46:17;;;;;;;2.25;1.92;;;;;;;28.84;40.01;98716.81;5046645;28;20229;-78
2022/08/16 08:48:50;;;;;;;2.33;1.65;;;;;;;28.72;40.68;98719.72;5048083;28;20615;-84
2022/08/16 08:51:30;;;;;;;5.32;2.33;;;;;;;28.76;41.07;98717.81;5029478;28;20244;-81
2022/08/16 08:54:07;;;;;;;4.40;2.15;;;;;;;28.84;40.29;98731.41;5053285;28;20703;-81
2022/08/16 08:56:40;;;;;;;2.28;2.08;;;;;;;28.80;39.84;98730.53;5059026;28;20762;-80
2022/08/16 08:59:31;;;;;;;3.80;2.20;;;;;;;28.80;40.75;98726.97;5057730;28;20240;-82
2022/08/16 09:02:01;;;;;;;2.10;1.90;;;;;;;28.86;40.34;98729.09;5056115;28;20645;-78
2022/08/16 09:04:37;;;;;;;2.05;1.85;;;;;;;28.75;40.46;98724.50;5038086;28;20241;-80
2022/08/16 09:07:05;;;;;;;3.60;2.03;;;;;;;28.91;40.44;98727.19;5022119;28;20238;-79
2022/08/16 09:09:33;;;;;;;3.10;1.70;;;;;;;29.07;40.00;98723.19;5033139;28;20230;-79
2022/08/16 09:12:10;;;;;;;2.22;1.90;;;;;;;29.25;39.72;98723.56;5037334;28;20247;-81
2022/08/16 09:15:05;;;;;;;3.25;2.05;;;;;;;29.29;38.90;98722.47;5034094;28;20230;-78
2022/08/16 09:17:32;;;;;;;2.40;2.20;;;;;;;29.19;39.41;98730.53;5050628;28;20265;-80
2022/08/16 09:20:17;;;;;;;2.22;1.90;;;;;;;29.31;38.89;98722.13;5037790;28;20253;-78
2022/08/16 09:22:45;;;;;;;2.47;2.00;;;;;;;29.41;39.42;98716.00;5033650;28;20249;-79
2022/08/16 09:25:21;;;;;;;2.45;1.98;;;;;;;29.55;38.44;98723.75;5027901;28;20323;-79
2022/08/16 09:27:52;;;;;;;4.10;2.25;;;;;;;29.54;38.67;98719.38;5021760;28;20639;-80
2022/08/16 09:30:33;;;;;;;1.85;1.75;;;;;;;29.48;38.71;98723.63;5020790;28;20222;-78
2022/08/16 09:33:10;;;;;;;3.25;1.90;;;;;;;29.47;38.35;98711.78;5025845;28;20226;-81
2022/08/16 09:35:37;;;;;;;2.35;1.80;;;;;;;29.54;38.72;98720.19;5028443;28;20233;-80
2022/08/16 09:38:08;;;;;;;2.92;1.70;;;;;;;29.49;38.56;98722.47;5028002;28;20230;-79
2022/08/16 09:40:38;;;;;;;3.13;2.20;;;;;;;29.53;37.92;98717.81;5021896;28;20227;-79
2022/08/16 09:43:16;;;;;;;3.22;1.90;;;;;;;29.61;38.34;98719.53;5012809;28;20233;-81
2022/08/16 09:46:06;;;;;;;2.60;1.98;;;;;;;29.66;38.13;98714.50;5042124;28;20976;-80
2022/08/16 09:48:53;;;;;;;3.50;2.00;;;;;;;29.70;37.94;98717.31;5041129;28;20231;-80
2022/08/16 09:51:25;;;;;;;2.58;2.10;;;;;;;29.85;37.78;98710.88;5047840;28;20272;-78
2022/08/16 09:53:56;;;;;;;5.85;2.20;;;;;;;29.97;37.30;98710.72;5042886;28;20217;-78
2022/08/16 09:56:27;;;;;;;2.10;2.00;;;;;;;29.83;37.26;98704.91;5043675;28;20264;-79
2022/08/16 09:58:58;;;;;;;3.25;2.30;;;;;;;29.93;37.25;98704.34;5046737;28;20855;-81
2022/08/16 10:01:37;;;;;;;4.22;2.28;;;;;;;29.79;36.93;98711.56;5045722;28;20310;-78
2022/08/16 10:04:11;;;;;;;2.47;1.90;;;;;;;29.82;37.24;98711.59;5044081;28;20230;-79
2022/08/16 10:06:57;;;;;;;3.03;2.00;;;;;;;29.88;37.57;98706.56;5041444;28;20651;-80
2022/08/16 10:09:24;;;;;;;2.30;2.10;;;;;;;29.98;37.58;98708.75;5042905;28;20258;-81
2022/08/16 10:14:56;;;;;;;2.92;2.25;;;;;;;30.16;36.35;98707.06;5045231;28;20240;-79
2022/08/16 10:17:23;;;;;;;2.40;2.03;;;;;;;30.07;36.44;98706.53;5047104;28;20288;-78
2022/08/16 10:19:52;;;;;;;3.50;2.03;;;;;;;30.17;35.86;98709.47;5043201;28;20718;-78
2022/08/16 10:22:18;;;;;;;2.28;1.90;;;;;;;30.34;36.29;98713.66;5044808;28;20326;-79
2022/08/16 10:24:49;;;;;;;2.50;2.30;;;;;;;30.34;36.28;98705.34;5046432;28;20232;-82
2022/08/16 10:27:25;;;;;;;4.05;2.25;;;;;;;30.62;36.03;98702.22;5042090;28;20317;-79
2022/08/16 10:29:55;;;;;;;2.28;1.92;;;;;;;30.69;35.36;98705.09;5044832;28;20233;-80
2022/08/16 10:32:32;;;;;;;3.70;2.10;;;;;;;30.58;35.72;98709.69;5030411;28;20261;-80
2022/08/16 10:35:02;;;;;;;3.65;2.22;;;;;;;30.73;35.66;98713.44;5045823;28;20703;-81
2022/08/16 10:37:29;;;;;;;3.50;2.10;;;;;;;30.83;35.55;98705.28;5045754;28;20661;-79
2022/08/16 10:40:07;;;;;;;2.72;2.08;;;;;;;30.99;35.18;98713.34;5044791;28;20720;-82
2022/08/16 10:42:54;;;;;;;2.47;2.10;;;;;;;31.08;35.24;98708.34;5047913;28;20252;-78
2022/08/16 10:45:21;;;;;;;2.38;2.17;;;;;;;31.18;34.48;98715.19;5049805;28;20931;-80
2022/08/16 10:47:48;;;;;;;2.42;2.20;;;;;;;31.13;34.69;98708.03;5042841;28;20230;-79
2022/08/16 10:50:31;;;;;;;1.90;1.80;;;;;;;31.30;34.33;98717.72;5050138;28;20311;-81
2022/08/16 10:52:58;;;;;;;2.20;2.00;;;;;;;31.50;34.43;98701.72;5050319;28;20241;-84
2022/08/16 10:55:30;;;;;;;2.30;2.10;;;;;;;31.74;34.23;98712.22;5049126;28;20321;-79
2022/08/16 10:58:12;;;;;;;4.60;2.40;;;;;;;31.64;33.86;98702.66;5039232;28;20584;-79
2022/08/16 11:00:43;;;;;;;2.42;2.22;;;;;;;31.75;34.29;98706.31;5046939;28;20700;-81
2022/08/16 11:03:13;;;;;;;2.63;2.10;;;;;;;31.76;34.22;98699.63;5043933;28;20673;-81
2022/08/16 11:06:00;;;;;;;2.42;1.90;;;;;;;31.69;33.78;98702.31;5057588;28;20271;-81
2022/08/16 11:08:35;;;;;;;2.20;2.10;;;;;;;31.67;33.99;98698.34;5044514;28;20221;-79
2022/08/16 11:11:07;;;;;;;2.13;2.03;;;;;;;31.69;34.46;98710.63;5043126;28;20225;-80
2022/08/16 11:13:45;;;;;;;2.50;2.30;;;;;;;31.81;34.12;98702.03;5041532;28;20237;-79
2022/08/16 11:16:32;;;;;;;2.20;1.90;;;;;;;32.01;34.65;98707.34;5041727;28;20589;-81
2022/08/16 11:19:19;;;;;;;2.03;1.92;;;;;;;31.65;33.91;98711.75;5041884;28;20253;-78
2022/08/16 11:21:48;;;;;;;2.30;2.15;;;;;;;31.74;34.40;98710.25;5047964;28;20643;-79
2022/08/16 11:24:39;;;;;;;2.33;1.85;;;;;;;31.68;34.18;98702.72;5045531;28;20313;-81
2022/08/16 11:27:17;;;;;;;2.20;2.10;;;;;;;31.90;33.89;98705.28;5036304;28;20230;-82
2022/08/16 11:29:48;;;;;;;2.30;2.10;;;;;;;31.56;34.34;98705.75;5041225;28;20226;-78
2022/08/16 11:32:17;;;;;;;2.25;2.05;;;;;;;31.92;34.43;98707.63;5040651;28;20241;-81
2022/08/16 11:34:48;;;;;;;2.40;2.20;;;;;;;31.93;33.57;98689.84;5046697;28;20684;-79
2022/08/16 11:37:35;;;;;;;2.63;2.08;;;;;;;32.12;33.87;98705.47;5043585;28;20716;-80
2022/08/16 11:40:24;;;;;;;3.40;2.20;;;;;;;32.30;33.02;98700.81;5040308;28;20233;-79
2022/08/16 11:43:00;;;;;;;3.60;2.40;;;;;;;31.92;33.81;98701.34;5045736;28;20241;-81
2022/08/16 11:45:30;;;;;;;3.60;2.42;;;;;;;32.23;33.74;98709.91;5039715;28;20238;-79
2022/08/16 11:48:04;;;;;;;2.95;2.10;;;;;;;32.02;33.66;98703.38;5042506;28;20253;-81
2022/08/16 11:50:32;;;;;;;2.17;1.98;;;;;;;32.02;32.80;98711.69;5042614;28;20607;-79
2022/08/16 11:53:00;;;;;;;2.13;2.03;;;;;;;32.07;33.07;98705.78;5029430;28;20774;-79
2022/08/16 11:55:29;;;;;;;3.33;2.30;;;;;;;31.97;33.04;98710.06;5019843;28;20257;-80
2022/08/16 11:57:56;;;;;;;2.00;1.90;;;;;;;32.06;33.07;98701.41;5028005;28;20262;-79
2022/08/16 12:00:23;;;;;;;2.33;2.13;;;;;;;32.18;33.36;98701.16;5024792;28;20234;-79
2022/08/16 12:03:10;;;;;;;3.60;2.10;;;;;;;32.33;32.59;98705.63;5026028;28;20305;-78
2022/08/16 12:05:37;;;;;;;3.08;2.20;;;;;;;32.52;32.83;98699.78;5024016;28;20244;-80